createdAt,value
2019-03-21T00:01:43.279Z,13.30
2019-03-21T00:04:14.313Z,13.30
2019-03-21T00:06:43.040Z,13.27
2019-03-21T00:09:14.339Z,13.90
2019-03-21T00:12:06.399Z,14.50
2019-03-21T00:14:47.027Z,15.67
2019-03-21T00:17:18.530Z,14.80
2019-03-21T00:19:46.985Z,14.20
2019-03-21T00:22:15.490Z,15.87
2019-03-21T00:24:43.990Z,14.63
2019-03-21T00:27:12.384Z,14.87
2019-03-21T00:29:40.896Z,16.20
2019-03-21T00:32:09.349Z,16.73
2019-03-21T00:34:37.785Z,15.57
2019-03-21T00:37:06.237Z,15.77
2019-03-21T00:39:34.732Z,15.63
2019-03-21T00:42:03.186Z,15.97
2019-03-21T00:44:31.731Z,16.57
2019-03-21T00:47:00.169Z,17.17
2019-03-21T00:49:28.700Z,16.57
2019-03-21T00:51:57.150Z,16.90
2019-03-21T00:54:25.588Z,17.90
2019-03-21T00:56:54.993Z,18.17
2019-03-21T00:59:23.425Z,17.40
2019-03-21T01:01:51.958Z,17.83
2019-03-21T01:04:22.666Z,18.33
2019-03-21T01:06:51.119Z,16.43
2019-03-21T01:09:19.556Z,16.30
2019-03-21T01:11:48.040Z,17.47
2019-03-21T01:14:16.548Z,17.37
2019-03-21T01:16:45.005Z,16.83
2019-03-21T01:19:13.464Z,16.13
2019-03-21T01:21:41.898Z,16.33
2019-03-21T01:24:10.434Z,17.27
2019-03-21T01:26:38.886Z,16.83
2019-03-21T01:29:07.307Z,16.60
2019-03-21T01:31:35.834Z,15.60
2019-03-21T01:34:04.394Z,16.97
2019-03-21T01:36:32.840Z,15.17
2019-03-21T01:39:01.387Z,15.57
2019-03-21T01:41:29.825Z,15.60
2019-03-21T01:43:58.297Z,16.70
2019-03-21T01:46:27.107Z,16.67
2019-03-21T01:48:55.537Z,17.27
2019-03-21T01:51:24.112Z,17.50
2019-03-21T01:53:54.293Z,17.13
2019-03-21T01:56:22.744Z,17.50
2019-03-21T01:58:51.792Z,18.43
2019-03-21T02:01:20.263Z,18.97
2019-03-21T02:03:48.774Z,18.63
2019-03-21T02:06:17.253Z,17.77
2019-03-21T02:08:45.688Z,18.53
2019-03-21T02:11:14.147Z,19.07
2019-03-21T02:13:42.632Z,17.83
2019-03-21T02:16:16.464Z,19.43
2019-03-21T02:18:45.660Z,18.93
2019-03-21T02:21:14.216Z,17.20
2019-03-21T02:23:42.651Z,18.63
2019-03-21T02:26:11.160Z,19.60
2019-03-21T02:28:39.627Z,20.50
2019-03-21T02:31:08.096Z,19.30
2019-03-21T02:33:44.743Z,20.00
2019-03-21T02:36:14.138Z,19.43
2019-03-21T02:38:42.830Z,20.27
2019-03-21T02:41:15.897Z,19.17
2019-03-21T02:43:44.366Z,19.20
2019-03-21T02:46:12.824Z,19.80
2019-03-21T02:48:41.271Z,19.33
2019-03-21T02:51:09.838Z,19.47
2019-03-21T02:53:38.429Z,18.53
2019-03-21T02:56:12.786Z,18.93
2019-03-21T02:58:41.314Z,19.03
2019-03-21T03:01:09.846Z,19.57
2019-03-21T03:03:38.420Z,18.27
2019-03-21T03:06:06.872Z,19.80
2019-03-21T03:08:35.322Z,19.63
2019-03-21T03:11:10.499Z,19.50
2019-03-21T03:13:37.547Z,19.27
2019-03-21T03:16:06.009Z,19.50
2019-03-21T03:18:34.450Z,18.93
2019-03-21T03:21:02.995Z,19.20
2019-03-21T03:23:31.436Z,19.40
2019-03-21T03:25:59.885Z,19.47
2019-03-21T03:28:37.835Z,18.67
2019-03-21T03:31:06.301Z,19.67
2019-03-21T03:33:34.840Z,20.10
2019-03-21T03:36:03.842Z,20.73
2019-03-21T03:38:32.305Z,20.53
2019-03-21T03:41:03.137Z,21.20
2019-03-21T03:43:31.623Z,19.67
2019-03-21T03:46:00.110Z,21.23
2019-03-21T03:48:29.070Z,20.57
2019-03-21T03:50:57.555Z,19.70
2019-03-21T03:53:26.044Z,20.07
2019-03-21T03:55:54.598Z,20.50
2019-03-21T03:58:27.600Z,21.67
2019-03-21T04:00:56.068Z,21.63
2019-03-21T04:03:26.256Z,21.60
2019-03-21T04:05:54.787Z,21.23
2019-03-21T04:08:23.330Z,20.73
2019-03-21T04:10:56.630Z,20.57
2019-03-21T04:13:25.061Z,20.67
2019-03-21T04:15:54.252Z,20.67
2019-03-21T04:18:25.139Z,20.17
2019-03-21T04:20:56.911Z,22.07
2019-03-21T04:23:25.404Z,20.43
2019-03-21T04:25:56.896Z,20.37
2019-03-21T04:28:25.336Z,21.97
2019-03-21T04:30:53.816Z,21.03
2019-03-21T04:33:22.963Z,21.33
2019-03-21T04:35:51.863Z,21.17
2019-03-21T04:38:20.373Z,20.77
2019-03-21T04:40:48.858Z,21.83
2019-03-21T04:43:17.282Z,22.43
2019-03-21T04:45:45.738Z,21.03
2019-03-21T04:48:14.217Z,19.93
2019-03-21T04:50:43.059Z,20.30
2019-03-21T04:53:11.522Z,21.90
2019-03-21T04:55:40.107Z,20.97
2019-03-21T04:58:08.589Z,21.00
2019-03-21T05:00:42.877Z,20.77
2019-03-21T05:03:16.512Z,19.93
2019-03-21T05:05:44.989Z,23.13
2019-03-21T05:08:14.085Z,21.77
2019-03-21T05:10:42.575Z,21.00
2019-03-21T05:13:11.037Z,21.00
2019-03-21T05:15:47.370Z,22.50
2019-03-21T05:18:19.046Z,21.10
2019-03-21T05:20:47.480Z,21.20
2019-03-21T05:23:16.000Z,20.17
2019-03-21T05:25:44.482Z,21.77
2019-03-21T05:28:12.981Z,21.23
2019-03-21T05:30:47.461Z,20.40
2019-03-21T05:33:15.906Z,21.33
2019-03-21T05:35:44.364Z,19.60
2019-03-21T05:38:13.351Z,21.23
2019-03-21T05:40:41.790Z,20.70
2019-03-21T05:43:16.054Z,21.70
2019-03-21T05:45:44.543Z,21.33
2019-03-21T05:48:12.969Z,21.20
2019-03-21T05:50:41.496Z,21.40
2019-03-21T05:53:10.188Z,22.47
2019-03-21T05:55:38.720Z,21.63
2019-03-21T05:58:07.148Z,21.07
2019-03-21T06:00:42.012Z,20.03
2019-03-21T06:03:16.865Z,21.07
2019-03-21T06:06:00.812Z,21.50
2019-03-21T06:08:35.227Z,19.97
2019-03-21T06:11:04.249Z,20.53
2019-03-21T06:13:32.737Z,20.67
2019-03-21T06:16:10.915Z,20.70
2019-03-21T06:19:03.565Z,19.50
2019-03-21T06:21:54.632Z,20.73
2019-03-21T06:24:32.124Z,21.73
2019-03-21T06:27:14.455Z,20.23
2019-03-21T06:29:39.414Z,21.63
2019-03-21T06:32:07.869Z,22.70
2019-03-21T06:34:36.670Z,20.97
2019-03-21T06:37:05.158Z,21.70
2019-03-21T06:39:33.621Z,20.63
2019-03-21T06:42:02.130Z,20.93
2019-03-21T06:44:30.560Z,20.77
2019-03-21T06:46:58.995Z,21.70
2019-03-21T06:49:27.472Z,21.90
2019-03-21T06:51:55.904Z,21.87
2019-03-21T06:54:24.407Z,22.57
2019-03-21T06:56:52.861Z,20.40
2019-03-21T06:59:21.300Z,22.43
2019-03-21T07:01:49.793Z,21.57
2019-03-21T07:04:18.215Z,22.83
2019-03-21T07:06:46.736Z,22.60
2019-03-21T07:09:15.258Z,23.30
2019-03-21T07:11:43.749Z,21.93
2019-03-21T07:14:12.221Z,23.03
2019-03-21T07:16:40.693Z,23.53
2019-03-21T07:19:09.137Z,21.47
2019-03-21T07:21:37.593Z,21.93
2019-03-21T07:24:06.083Z,22.70
2019-03-21T07:26:34.563Z,24.10
2019-03-21T07:29:03.071Z,21.20
2019-03-21T07:31:31.555Z,22.13
2019-03-21T07:34:00.049Z,21.43
2019-03-21T07:36:28.482Z,22.13
2019-03-21T07:38:56.958Z,23.47
2019-03-21T07:41:25.387Z,23.77
2019-03-21T07:43:53.937Z,23.10
2019-03-21T07:46:22.465Z,23.47
2019-03-21T07:48:50.902Z,21.93
2019-03-21T07:51:19.411Z,22.47
2019-03-21T07:53:47.860Z,23.10
2019-03-21T07:56:16.347Z,23.97
2019-03-21T07:58:44.831Z,22.87
2019-03-21T08:01:13.313Z,24.53
2019-03-21T08:03:41.778Z,24.53
2019-03-21T08:06:10.278Z,24.23
2019-03-21T08:08:38.760Z,24.43
2019-03-21T08:11:07.204Z,24.83
2019-03-21T08:13:35.712Z,23.50
2019-03-21T08:16:04.122Z,26.00
2019-03-21T08:18:32.575Z,24.33
2019-03-21T08:21:01.019Z,25.17
2019-03-21T08:23:29.631Z,24.67
2019-03-21T08:25:58.323Z,23.53
2019-03-21T08:28:26.824Z,24.90
2019-03-21T08:31:07.163Z,25.53
2019-03-21T08:33:35.647Z,24.57
2019-03-21T08:36:04.099Z,23.73
2019-03-21T08:38:32.602Z,24.30
2019-03-21T08:41:01.057Z,26.07
2019-03-21T08:43:29.520Z,24.20
2019-03-21T08:45:58.004Z,26.43
2019-03-21T08:48:26.438Z,25.93
2019-03-21T08:50:54.909Z,25.27
2019-03-21T08:53:23.389Z,25.50
2019-03-21T08:55:51.918Z,26.03
2019-03-21T08:58:20.402Z,26.33
2019-03-21T09:00:48.856Z,26.40
2019-03-21T09:03:17.358Z,24.47
2019-03-21T09:05:45.876Z,26.00
2019-03-21T09:08:14.329Z,26.60
2019-03-21T09:10:42.884Z,26.53
2019-03-21T09:13:11.427Z,26.60
2019-03-21T09:15:39.937Z,24.97
2019-03-21T09:18:08.424Z,24.87
2019-03-21T09:20:36.855Z,25.07
2019-03-21T09:23:05.366Z,25.13
2019-03-21T09:25:33.845Z,28.67
2019-03-21T09:28:03.172Z,26.10
2019-03-21T09:30:31.759Z,26.30
2019-03-21T09:33:00.200Z,25.90
2019-03-21T09:35:28.666Z,25.43
2019-03-21T09:37:57.134Z,25.67
2019-03-21T09:40:25.585Z,25.80
2019-03-21T09:42:54.064Z,27.50
2019-03-21T09:45:22.540Z,28.37
2019-03-21T09:47:50.991Z,28.13
2019-03-21T09:50:27.861Z,25.97
2019-03-21T09:52:56.422Z,29.07
2019-03-21T09:55:24.976Z,30.20
2019-03-21T09:57:53.531Z,30.17
2019-03-21T10:00:33.920Z,30.03
2019-03-21T10:03:02.543Z,30.77
2019-03-21T10:05:31.100Z,31.37
2019-03-21T10:07:59.798Z,32.27
2019-03-21T10:10:32.855Z,31.80
2019-03-21T10:13:01.455Z,32.27
2019-03-21T10:15:29.923Z,31.50
2019-03-21T10:17:58.519Z,32.90
2019-03-21T10:20:26.996Z,33.80
2019-03-21T10:22:55.431Z,32.40
2019-03-21T10:25:26.505Z,31.50
2019-03-21T10:27:54.159Z,31.13
2019-03-21T10:30:37.032Z,31.63
2019-03-21T10:33:10.893Z,27.97
2019-03-21T10:35:39.349Z,29.67
2019-03-21T10:38:07.962Z,31.43
2019-03-21T10:40:36.848Z,31.13
2019-03-21T10:43:06.257Z,29.23
2019-03-21T10:45:34.838Z,32.57
2019-03-21T10:48:03.350Z,31.97
2019-03-21T10:50:34.511Z,31.77
2019-03-21T10:53:03.060Z,30.83
2019-03-21T10:55:32.378Z,32.13
2019-03-21T10:58:00.827Z,30.97
2019-03-21T11:00:29.357Z,31.33
2019-03-21T11:02:57.896Z,31.77
2019-03-21T11:05:26.365Z,30.17
2019-03-21T11:07:54.946Z,32.03
2019-03-21T11:10:23.590Z,32.33
2019-03-21T11:12:52.228Z,30.73
2019-03-21T11:15:20.737Z,32.43
2019-03-21T11:17:50.166Z,35.53
2019-03-21T11:20:35.950Z,33.10
2019-03-21T11:23:06.169Z,29.63
2019-03-21T11:25:35.229Z,30.53
2019-03-21T11:28:03.754Z,31.40
2019-03-21T11:30:34.799Z,31.47
2019-03-21T11:33:03.893Z,31.33
2019-03-21T11:35:32.768Z,31.67
2019-03-21T11:38:01.321Z,31.50
2019-03-21T11:40:30.158Z,31.63
2019-03-21T11:42:58.681Z,31.10
2019-03-21T11:45:27.266Z,30.70
2019-03-21T11:47:55.754Z,31.47
2019-03-21T11:50:24.214Z,31.00
2019-03-21T11:52:52.712Z,31.50
2019-03-21T11:55:21.315Z,30.13
2019-03-21T11:57:49.830Z,30.50
2019-03-21T12:00:19.306Z,30.27
2019-03-21T12:02:49.285Z,32.80
2019-03-21T12:05:17.890Z,32.00
2019-03-21T12:07:46.366Z,30.83
2019-03-21T12:10:16.449Z,31.33
2019-03-21T12:12:44.965Z,30.87
2019-03-21T12:15:13.759Z,31.43
2019-03-21T12:17:42.361Z,32.20
2019-03-21T12:20:13.690Z,31.47
2019-03-21T12:22:42.140Z,31.67
2019-03-21T12:25:11.558Z,29.73
2019-03-21T12:27:40.044Z,30.23
2019-03-21T12:30:11.881Z,28.90
2019-03-21T12:32:40.332Z,29.43
2019-03-21T12:35:08.948Z,28.23
2019-03-21T12:37:37.398Z,30.33
2019-03-21T12:40:09.799Z,31.27
2019-03-21T12:42:38.280Z,28.30
2019-03-21T12:45:09.375Z,28.73
2019-03-21T12:47:38.212Z,29.70
2019-03-21T12:50:09.071Z,29.60
2019-03-21T12:55:08.459Z,28.33
2019-03-21T12:57:36.885Z,28.97
2019-03-21T13:00:15.699Z,28.10
2019-03-21T13:02:44.279Z,28.77
2019-03-21T13:05:27.624Z,30.17
2019-03-21T13:07:56.135Z,28.07
2019-03-21T13:10:24.643Z,28.23
2019-03-21T13:12:53.101Z,28.63
2019-03-21T13:15:29.918Z,29.60
2019-03-21T13:17:51.869Z,27.40
2019-03-21T13:20:20.374Z,25.77
2019-03-21T13:22:53.304Z,27.77
2019-03-21T13:25:18.990Z,26.93
2019-03-21T13:27:47.580Z,27.33
2019-03-21T13:30:16.485Z,29.33
2019-03-21T13:32:46.973Z,28.53
2019-03-21T13:35:15.281Z,27.60
2019-03-21T13:37:43.710Z,27.93
2019-03-21T13:40:12.178Z,27.07
2019-03-21T13:42:40.667Z,28.47
2019-03-21T13:45:09.523Z,26.13
2019-03-21T13:47:38.036Z,26.00
2019-03-21T13:50:10.247Z,25.93
2019-03-21T13:52:38.686Z,26.37
2019-03-21T13:55:12.003Z,24.50
2019-03-21T13:57:40.459Z,25.57
2019-03-21T14:00:20.668Z,25.77
2019-03-21T14:02:49.209Z,27.67
2019-03-21T14:05:17.808Z,24.10
2019-03-21T14:07:46.316Z,25.73
2019-03-21T14:10:14.901Z,26.10
2019-03-21T14:12:43.361Z,25.57
2019-03-21T14:15:14.682Z,26.67
2019-03-21T14:17:43.988Z,25.10
2019-03-21T14:20:14.847Z,26.50
2019-03-21T14:22:43.332Z,25.67
2019-03-21T14:25:13.193Z,25.03
2019-03-21T14:27:42.101Z,26.07
2019-03-21T14:30:18.157Z,25.07
2019-03-21T14:32:46.683Z,24.17
2019-03-21T14:35:15.372Z,24.47
2019-03-21T14:37:43.850Z,24.00
2019-03-21T14:40:16.926Z,23.07
2019-03-21T14:42:45.439Z,24.83
2019-03-21T14:45:16.456Z,24.10
2019-03-21T14:47:45.037Z,24.10
2019-03-21T14:50:15.339Z,24.17
2019-03-21T14:52:43.783Z,23.60
2019-03-21T14:55:14.620Z,23.93
2019-03-21T14:57:43.188Z,24.43
2019-03-21T15:00:17.090Z,23.30
2019-03-21T15:02:45.616Z,23.10
2019-03-21T15:05:14.527Z,24.47
2019-03-21T15:07:43.167Z,24.40
2019-03-21T15:10:22.032Z,26.10
2019-03-21T15:12:50.671Z,24.70
2019-03-21T15:15:20.853Z,24.93
2019-03-21T15:17:49.304Z,25.63
2019-03-21T15:20:18.182Z,24.87
2019-03-21T15:22:46.658Z,23.77
2019-03-21T15:25:15.169Z,23.67
2019-03-21T15:27:43.756Z,25.03
2019-03-21T15:30:18.374Z,25.40
2019-03-21T15:32:47.152Z,23.63
2019-03-21T15:35:17.439Z,24.27
2019-03-21T15:37:45.939Z,24.40
2019-03-21T15:40:16.498Z,23.17
2019-03-21T15:42:44.932Z,26.07
2019-03-21T15:45:23.352Z,26.30
2019-03-21T15:47:49.496Z,25.30
2019-03-21T15:50:37.647Z,24.47
2019-03-21T15:53:06.393Z,26.13
2019-03-21T15:55:34.928Z,25.30
2019-03-21T15:58:03.504Z,24.83
2019-03-21T16:00:40.437Z,25.47
2019-03-21T16:03:11.244Z,25.90
2019-03-21T16:05:40.474Z,25.47
2019-03-21T16:08:09.643Z,26.73
2019-03-21T16:10:38.225Z,25.67
2019-03-21T16:13:06.697Z,26.70
2019-03-21T16:15:35.241Z,25.27
2019-03-21T16:18:03.840Z,27.93
2019-03-21T16:20:32.378Z,27.27
2019-03-21T16:23:00.859Z,25.60
2019-03-21T16:25:29.281Z,26.50
2019-03-21T16:27:58.515Z,28.63
2019-03-21T16:30:26.974Z,27.87
2019-03-21T16:32:56.073Z,27.00
2019-03-21T16:35:24.911Z,29.87
2019-03-21T16:37:56.301Z,33.43
2019-03-21T16:40:24.816Z,34.93
2019-03-21T16:42:55.994Z,34.53
2019-03-21T16:45:24.537Z,33.07
2019-03-21T16:47:52.998Z,35.07
2019-03-21T16:50:21.477Z,34.77
2019-03-21T16:52:49.993Z,34.20
2019-03-21T16:55:18.491Z,34.50
2019-03-21T16:57:47.069Z,35.07
2019-03-21T17:00:21.106Z,35.30
2019-03-21T17:02:49.599Z,34.77
2019-03-21T17:05:18.158Z,35.80
2019-03-21T17:07:46.651Z,34.03
2019-03-21T17:10:16.840Z,34.80
2019-03-21T17:12:45.409Z,35.53
2019-03-21T17:15:16.179Z,36.37
2019-03-21T17:17:44.778Z,34.63
2019-03-21T17:20:14.054Z,35.73
2019-03-21T17:22:42.500Z,33.27
2019-03-21T17:25:11.976Z,35.47
2019-03-21T17:27:40.441Z,34.10
2019-03-21T17:30:11.414Z,34.43
2019-03-21T17:32:39.946Z,34.60
2019-03-21T17:35:08.865Z,32.93
2019-03-21T17:37:37.395Z,34.43
2019-03-21T17:40:16.356Z,34.10
2019-03-21T17:42:44.888Z,36.23
2019-03-21T17:45:20.389Z,33.80
2019-03-21T17:47:51.691Z,35.07
2019-03-21T17:50:20.271Z,33.57
2019-03-21T17:52:48.714Z,34.77
2019-03-21T17:55:17.255Z,34.27
2019-03-21T17:57:45.700Z,34.23
2019-03-21T18:00:37.609Z,33.87
2019-03-21T18:03:07.219Z,33.67
2019-03-21T18:05:35.685Z,34.47
2019-03-21T18:08:04.290Z,33.57
2019-03-21T18:10:34.342Z,35.60
2019-03-21T18:13:03.778Z,33.37
2019-03-21T18:15:32.336Z,36.20
2019-03-21T18:18:01.249Z,35.43
2019-03-21T18:20:29.729Z,36.07
2019-03-21T18:22:58.425Z,34.57
2019-03-21T18:25:26.961Z,34.77
2019-03-21T18:27:55.494Z,34.53
2019-03-21T18:30:24.066Z,35.57
2019-03-21T18:32:52.515Z,33.97
2019-03-21T18:35:21.225Z,34.63
2019-03-21T18:37:49.783Z,35.40
2019-03-21T18:40:20.981Z,32.40
2019-03-21T18:42:49.402Z,33.90
2019-03-21T18:45:17.942Z,33.03
2019-03-21T18:47:46.381Z,34.93
2019-03-21T18:50:16.157Z,35.00
2019-03-21T18:52:44.724Z,35.23
2019-03-21T18:55:14.149Z,34.70
2019-03-21T18:57:43.222Z,33.83
2019-03-21T19:00:17.189Z,33.07
2019-03-21T19:02:45.620Z,34.90
2019-03-21T19:05:14.297Z,34.97
2019-03-21T19:07:43.595Z,34.50
2019-03-21T19:10:13.876Z,35.73
2019-03-21T19:12:42.614Z,36.90
2019-03-21T19:15:15.262Z,36.80
2019-03-21T19:17:43.719Z,36.63
2019-03-21T19:20:15.098Z,36.83
2019-03-21T19:22:43.645Z,37.83
2019-03-21T19:25:18.334Z,36.27
2019-03-21T19:27:42.577Z,37.87
2019-03-21T19:30:13.878Z,36.70
2019-03-21T19:32:42.767Z,36.60
2019-03-21T19:35:11.727Z,36.30
2019-03-21T19:37:40.295Z,37.70
2019-03-21T19:40:12.286Z,37.83
2019-03-21T19:42:40.774Z,37.60
2019-03-21T19:45:12.738Z,38.33
2019-03-21T19:47:41.236Z,36.80
2019-03-21T19:50:12.740Z,38.23
2019-03-21T19:52:41.208Z,37.17
2019-03-21T19:55:10.602Z,35.90
2019-03-21T19:57:39.052Z,36.53
2019-03-21T20:00:10.673Z,39.63
2019-03-21T20:02:39.715Z,37.87
2019-03-21T20:05:09.746Z,38.53
2019-03-21T20:07:38.320Z,37.27
2019-03-21T20:10:08.925Z,36.70
2019-03-21T20:12:37.356Z,37.57
2019-03-21T20:15:08.978Z,35.00
2019-03-21T20:17:37.424Z,35.87
2019-03-21T20:20:10.999Z,35.13
2019-03-21T20:22:39.495Z,37.43
2019-03-21T20:25:08.594Z,36.63
2019-03-21T20:27:37.180Z,36.93
2019-03-21T20:30:08.781Z,35.77
2019-03-21T20:32:39.993Z,38.30
2019-03-21T20:35:09.209Z,35.77
2019-03-21T20:37:37.644Z,35.03
2019-03-21T20:40:08.778Z,36.37
2019-03-21T20:42:37.284Z,36.63
2019-03-21T20:45:07.966Z,36.43
2019-03-21T20:47:36.391Z,34.67
2019-03-21T20:50:07.202Z,34.77
2019-03-21T20:52:35.708Z,36.87
2019-03-21T20:55:06.136Z,36.30
2019-03-21T20:57:34.925Z,37.33
2019-03-21T21:00:05.386Z,35.40
2019-03-21T21:02:33.965Z,36.73
2019-03-21T21:05:02.826Z,37.30
2019-03-21T21:07:31.340Z,36.50
2019-03-21T21:10:00.596Z,37.73
2019-03-21T21:12:29.171Z,34.83
2019-03-21T21:14:57.696Z,36.07
2019-03-21T21:17:26.214Z,37.13
2019-03-21T21:19:54.677Z,37.97
2019-03-21T21:22:23.122Z,36.47
2019-03-21T21:24:51.556Z,36.40
2019-03-21T21:27:20.778Z,37.67
2019-03-21T21:29:49.280Z,36.30
2019-03-21T21:32:17.757Z,36.97
2019-03-21T21:34:47.291Z,40.43
2019-03-21T21:37:15.764Z,38.17
2019-03-21T21:39:44.244Z,40.23
2019-03-21T21:42:12.708Z,40.77
2019-03-21T21:44:41.223Z,38.83
2019-03-21T21:47:09.656Z,39.27
2019-03-21T21:49:38.109Z,39.20
2019-03-21T21:52:06.649Z,38.43
2019-03-21T21:54:35.098Z,41.17
2019-03-21T21:57:04.154Z,40.30
2019-03-21T21:59:32.623Z,39.00
2019-03-21T22:02:01.116Z,37.93
2019-03-21T22:04:29.640Z,40.40
2019-03-21T22:06:58.107Z,40.00
2019-03-21T22:09:26.550Z,38.70
2019-03-21T22:11:55.005Z,38.60
2019-03-21T22:14:23.541Z,36.07
2019-03-21T22:16:51.992Z,38.80
2019-03-21T22:19:20.468Z,39.73
2019-03-21T22:21:48.924Z,40.07
2019-03-21T22:24:17.428Z,39.17
2019-03-21T22:26:45.901Z,38.47
2019-03-21T22:29:14.363Z,41.00
2019-03-21T22:31:42.830Z,40.60
2019-03-21T22:34:11.283Z,39.17
2019-03-21T22:36:48.929Z,36.77
2019-03-21T22:39:10.060Z,39.57
2019-03-21T22:41:38.750Z,39.07
2019-03-21T22:44:07.226Z,39.67
2019-03-21T22:46:35.711Z,38.43
2019-03-21T22:49:04.277Z,39.37
2019-03-21T22:51:32.804Z,38.67
2019-03-21T22:54:01.277Z,40.07
2019-03-21T22:56:40.513Z,38.90
2019-03-21T22:58:59.962Z,37.83
2019-03-21T23:01:28.496Z,37.77
2019-03-21T23:03:57.026Z,38.07
2019-03-21T23:06:25.612Z,37.50
2019-03-21T23:08:54.762Z,38.63
2019-03-21T23:11:23.534Z,38.23
2019-03-21T23:13:52.135Z,38.00
2019-03-21T23:16:20.677Z,37.57
2019-03-21T23:18:49.238Z,38.47
2019-03-21T23:21:17.688Z,38.23
2019-03-21T23:23:46.161Z,38.37
2019-03-21T23:26:14.781Z,35.13
2019-03-21T23:28:43.271Z,39.63
2019-03-21T23:31:11.781Z,38.53
2019-03-21T23:33:40.236Z,38.50
2019-03-21T23:36:08.691Z,37.10
2019-03-21T23:38:37.207Z,38.50
2019-03-21T23:41:05.808Z,35.73
2019-03-21T23:43:34.322Z,36.17
2019-03-21T23:46:02.749Z,37.30
2019-03-21T23:48:31.239Z,37.73
2019-03-21T23:50:59.759Z,37.33
2019-03-21T23:53:29.759Z,38.10
2019-03-21T23:55:58.217Z,37.13
2019-03-21T23:58:26.647Z,36.03
